Time;durP1;ratioP1;P1;durP2;ratioP2;P2;SDS_P1;SDS_P2;PMS_P1;PMS_P2;Temp;Humidity;BMP_temperature;BMP_pressure;BME280_temperature;BME280_humidity;BME280_pressure;Samples;Min_cycle;Max_cycle;Signal;HPM_P1;HPM_P2
2021/10/24 00:02:25;;;;;;;14.15;11.85;;;5.30;99.90;;;;;;6238230;23;20221;-91
2021/10/24 00:04:51;;;;;;;13.68;10.65;;;;;;;;;;6187293;23;20148;-92
2021/10/24 00:07:18;;;;;;;16.25;10.80;;;5.30;99.90;;;;;;6240533;23;20144;-92
2021/10/24 00:09:46;;;;;;;16.08;10.55;;;;;;;;;;6212128;23;20210;-92
2021/10/24 00:12:11;;;;;;;12.35;10.77;;;5.30;99.90;;;;;;6209922;23;20161;-92
2021/10/24 00:14:40;;;;;;;13.80;10.40;;;5.30;99.90;;;;;;6211986;23;20235;-93
2021/10/24 00:17:07;;;;;;;12.25;11.05;;;;;;;;;;6238004;23;20355;-91
2021/10/24 00:19:36;;;;;;;13.75;10.48;;;5.40;99.90;;;;;;6209522;23;20156;-92
2021/10/24 00:22:03;;;;;;;12.40;11.15;;;5.40;99.90;;;;;;6212486;23;20176;-92
2021/10/24 00:24:32;;;;;;;11.13;10.05;;;5.40;99.90;;;;;;6237242;23;20143;-92
2021/10/24 00:26:58;;;;;;;14.38;11.00;;;8.00;99.90;;;;;;6211634;23;20729;-93
2021/10/24 00:29:24;;;;;;;12.00;10.40;;;5.20;99.90;;;;;;6212907;23;20143;-93
2021/10/24 00:31:53;;;;;;;11.10;10.05;;;8.70;99.90;;;;;;6186534;23;20155;-92
2021/10/24 00:34:20;;;;;;;10.70;9.73;;;5.40;99.90;;;;;;6214985;23;20210;-92
2021/10/24 00:37:02;;;;;;;11.45;9.77;;;5.40;99.90;;;;;;6187440;23;20157;-93
2021/10/24 00:39:28;;;;;;;10.70;9.60;;;;;;;;;;6238912;23;20231;-92
2021/10/24 00:42:01;;;;;;;11.45;10.35;;;5.50;99.90;;;;;;6239487;23;20262;-92
2021/10/24 00:44:52;;;;;;;13.50;10.52;;;5.90;99.90;;;;;;6215008;23;20144;-92
2021/10/24 00:47:17;;;;;;;14.23;10.65;;;;;;;;;;6235690;23;20203;-92
2021/10/24 00:49:43;;;;;;;11.38;10.25;;;;;;;;;;6186667;23;20148;-92
2021/10/24 00:52:10;;;;;;;13.35;11.00;;;5.30;99.90;;;;;;6212009;23;20191;-92
2021/10/24 00:54:39;;;;;;;14.00;9.70;;;5.30;99.90;;;;;;6212808;23;20166;-92
2021/10/24 00:57:09;;;;;;;11.55;10.25;;;5.30;99.90;;;;;;6236128;23;20147;-92
2021/10/24 00:59:42;;;;;;;11.63;10.38;;;5.20;99.90;;;;;;6163737;23;20155;-93
2021/10/24 01:02:11;;;;;;;14.18;10.05;;;;;;;;;;6210008;23;20178;-92
2021/10/24 01:04:44;;;;;;;11.00;9.85;;;;;;;;;;6210854;23;20203;-92
2021/10/24 01:07:12;;;;;;;14.40;10.20;;;8.00;99.90;;;;;;6186825;23;20148;-92
2021/10/24 01:09:39;;;;;;;14.85;10.55;;;5.20;99.90;;;;;;6236856;23;20207;-92
2021/10/24 01:12:10;;;;;;;10.25;8.80;;;5.30;99.90;;;;;;6210976;23;20148;-91
2021/10/24 01:14:38;;;;;;;13.25;9.98;;;6.20;99.90;;;;;;6187681;23;20191;-92
2021/10/24 01:17:07;;;;;;;10.05;9.25;;;5.20;99.90;;;;;;6236270;23;20148;-92
2021/10/24 01:19:34;;;;;;;11.90;9.65;;;4.70;99.90;;;;;;6236754;23;20147;-91
2021/10/24 01:22:03;;;;;;;10.45;9.35;;;5.30;99.90;;;;;;6212705;23;20183;-92
2021/10/24 01:24:29;;;;;;;12.43;9.18;;;;;;;;;;6238554;23;20128;-93
2021/10/24 01:27:04;;;;;;;9.55;8.27;;;5.40;99.90;;;;;;6237419;23;20289;-92
2021/10/24 01:29:38;;;;;;;10.50;9.15;;;5.00;99.90;;;;;;6239213;23;20141;-92
2021/10/24 01:32:07;;;;;;;9.23;8.52;;;5.00;99.90;;;;;;6239764;23;20144;-92
2021/10/24 01:34:47;;;;;;;11.07;8.80;;;5.30;99.90;;;;;;6236936;23;20152;-92
2021/10/24 01:37:22;;;;;;;9.93;9.18;;;5.30;99.90;;;;;;6238369;23;20131;-91
2021/10/24 01:39:52;;;;;;;9.88;8.90;;;5.10;99.90;;;;;;6239345;23;20162;-91
2021/10/24 01:42:18;;;;;;;9.55;8.52;;;6.40;99.90;;;;;;6209518;23;20161;-92
2021/10/24 01:44:49;;;;;;;9.73;8.73;;;;;;;;;;6235260;23;20147;-92
2021/10/24 01:47:16;;;;;;;14.10;9.30;;;5.20;99.90;;;;;;6238774;23;20169;-92
2021/10/24 01:49:46;;;;;;;9.60;8.80;;;7.30;99.90;;;;;;6237851;23;20127;-91
2021/10/24 01:52:12;;;;;;;9.18;8.38;;;;;;;;;;6186239;23;20151;-91
2021/10/24 01:54:40;;;;;;;9.85;8.35;;;5.20;99.90;;;;;;6212449;23;20164;-91
2021/10/24 01:57:10;;;;;;;9.82;8.82;;;5.10;99.90;;;;;;6238886;23;20170;-92
2021/10/24 01:59:38;;;;;;;9.95;8.95;;;6.20;99.90;;;;;;6211199;23;20143;-91
2021/10/24 02:02:06;;;;;;;13.73;9.63;;;8.40;99.90;;;;;;6215546;23;20183;-92
2021/10/24 02:04:52;;;;;;;10.75;9.52;;;5.10;99.90;;;;;;6239836;23;20148;-92
2021/10/24 02:07:18;;;;;;;9.63;8.63;;;7.40;99.90;;;;;;6236655;23;20147;-92
2021/10/24 02:09:44;;;;;;;9.50;8.60;;;5.10;99.90;;;;;;6240700;23;20160;-92
2021/10/24 02:12:17;;;;;;;9.07;8.13;;;5.00;99.90;;;;;;6239241;23;20174;-91
2021/10/24 02:14:44;;;;;;;10.70;9.48;;;;;;;;;;6239031;23;20274;-90
2021/10/24 02:17:12;;;;;;;9.30;8.35;;;5.00;99.90;;;;;;6244977;23;20151;-92
2021/10/24 02:19:42;;;;;;;9.38;8.57;;;6.50;99.90;;;;;;6269879;23;20177;-91
2021/10/24 02:22:13;;;;;;;10.27;8.30;;;5.00;99.90;;;;;;6243609;23;20182;-91
2021/10/24 02:24:39;;;;;;;8.95;8.15;;;;;;;;;;6243287;23;20194;-92
2021/10/24 02:27:11;;;;;;;11.60;9.05;;;5.00;99.90;;;;;;6242712;23;20155;-93
2021/10/24 02:29:42;;;;;;;9.73;8.10;;;4.90;99.90;;;;;;6270528;23;20147;-91
2021/10/24 02:32:10;;;;;;;9.40;8.60;;;;;;;;;;6241077;23;20155;-92
2021/10/24 02:34:42;;;;;;;11.40;9.77;;;4.90;99.90;;;;;;6242433;23;20158;-92
2021/10/24 02:37:08;;;;;;;14.98;10.23;;;;;;;;;;6218022;23;20173;-92
2021/10/24 02:39:34;;;;;;;9.38;8.05;;;4.90;99.90;;;;;;6242791;23;20210;-91
2021/10/24 02:42:02;;;;;;;8.67;7.93;;;;;;;;;;6243242;23;20170;-92
2021/10/24 02:44:29;;;;;;;9.15;8.35;;;;;;;;;;6262723;23;20369;-91
2021/10/24 02:46:59;;;;;;;13.15;8.80;;;;;;;;;;6220692;23;20154;-90
2021/10/24 02:49:26;;;;;;;11.25;9.82;;;4.90;99.90;;;;;;6269155;23;20150;-89
2021/10/24 02:51:54;;;;;;;12.10;8.88;;;8.10;99.90;;;;;;6245566;23;20151;-90
2021/10/24 02:54:20;;;;;;;7.53;6.90;;;4.00;99.90;;;;;;6244860;23;20198;-91
2021/10/24 02:56:48;;;;;;;8.77;8.00;;;5.20;99.90;;;;;;6243917;23;20143;-91
2021/10/24 02:59:18;;;;;;;8.98;8.27;;;4.30;99.90;;;;;;6246050;23;20146;-92
2021/10/24 03:02:06;;;;;;;18.08;9.07;;;4.30;99.90;;;;;;6270704;23;20202;-92
2021/10/24 03:04:37;;;;;;;9.25;8.02;;;5.40;99.90;;;;;;6266534;23;20147;-91
2021/10/24 03:07:09;;;;;;;8.27;7.57;;;5.60;99.90;;;;;;6244793;23;20139;-92
2021/10/24 03:09:35;;;;;;;8.90;8.00;;;5.10;99.90;;;;;;6245079;23;20143;-92
2021/10/24 03:12:07;;;;;;;9.02;7.32;;;5.40;99.90;;;;;;6244648;23;20127;-92
2021/10/24 03:14:33;;;;;;;8.80;7.90;;;5.40;99.90;;;;;;6236836;23;20210;-91
2021/10/24 03:17:00;;;;;;;8.57;7.50;;;;;;;;;;6210939;23;20152;-91
2021/10/24 03:19:26;;;;;;;9.35;7.93;;;4.90;99.90;;;;;;6212162;23;20144;-91
2021/10/24 03:22:09;;;;;;;8.80;8.00;;;4.90;99.90;;;;;;6212519;23;20167;-91
2021/10/24 03:24:39;;;;;;;9.43;8.43;;;3.80;99.90;;;;;;6213084;23;20156;-92
2021/10/24 03:27:09;;;;;;;10.77;8.23;;;5.10;99.90;;;;;;6240869;23;20127;-91
2021/10/24 03:29:36;;;;;;;8.18;7.57;;;;;;;;;;6213086;23;20159;-92
2021/10/24 03:32:06;;;;;;;8.00;7.30;;;4.90;99.90;;;;;;6215109;23;20143;-92
2021/10/24 03:34:37;;;;;;;9.68;8.88;;;5.40;99.90;;;;;;6212581;23;20235;-91
2021/10/24 03:37:13;;;;;;;11.38;8.10;;;4.70;99.90;;;;;;6191812;23;20595;-91
2021/10/24 03:39:41;;;;;;;10.98;8.60;;;;;;;;;;6239344;23;20201;-91
2021/10/24 03:42:07;;;;;;;11.73;8.35;;;5.00;99.90;;;;;;6213061;23;20171;-92
2021/10/24 03:44:33;;;;;;;13.63;7.67;;;;;;;;;;6180106;23;20170;-92
2021/10/24 03:47:02;;;;;;;8.75;7.95;;;;;;;;;;6210821;23;20379;-91
2021/10/24 03:49:32;;;;;;;9.50;8.13;;;;;;;;;;6208625;23;20185;-91
2021/10/24 03:52:03;;;;;;;8.75;7.95;;;4.90;99.90;;;;;;6208310;23;20140;-91
2021/10/24 03:54:41;;;;;;;20.05;8.65;;;5.60;99.90;;;;;;6207348;23;20222;-91
2021/10/24 03:57:11;;;;;;;9.63;8.80;;;8.40;99.90;;;;;;6208561;23;20159;-91
2021/10/24 03:59:38;;;;;;;9.95;8.15;;;;;;;;;;6237272;23;20172;-91
2021/10/24 04:02:15;;;;;;;10.13;8.55;;;4.90;99.90;;;;;;6213410;23;20183;-92
2021/10/24 04:04:44;;;;;;;9.27;8.02;;;5.10;99.90;;;;;;6214875;23;20208;-92
2021/10/24 04:07:14;;;;;;;9.60;8.55;;;4.80;99.90;;;;;;6241448;23;20131;-92
2021/10/24 04:09:44;;;;;;;8.55;7.75;;;8.00;99.90;;;;;;6189873;23;20207;-91
2021/10/24 04:12:11;;;;;;;9.73;8.50;;;;;;;;;;6240380;23;20159;-92
2021/10/24 04:14:52;;;;;;;8.83;8.03;;;4.80;99.90;;;;;;6209745;23;20191;-91
2021/10/24 04:17:24;;;;;;;13.02;7.68;;;4.70;99.90;;;;;;6237484;23;20397;-91
2021/10/24 04:19:50;;;;;;;9.40;7.68;;;;;;;;;;6190147;23;20155;-92
2021/10/24 04:22:19;;;;;;;11.10;8.45;;;4.70;99.90;;;;;;6211479;23;20230;-91
2021/10/24 04:24:45;;;;;;;10.50;8.23;;;8.20;99.90;;;;;;6213780;23;20167;-91
2021/10/24 04:27:12;;;;;;;10.77;8.33;;;4.50;99.90;;;;;;6213618;23;20151;-91
2021/10/24 04:29:38;;;;;;;8.05;7.25;;;;;;;;;;6213679;23;20394;-91
2021/10/24 04:32:04;;;;;;;13.60;9.05;;;4.60;99.90;;;;;;6213695;23;20152;-92
2021/10/24 04:34:30;;;;;;;13.27;7.90;;;;;;;;;;6209589;23;20152;-93
2021/10/24 04:36:56;;;;;;;14.85;8.80;;;;;;;;;;6214888;23;20363;-92
2021/10/24 04:39:31;;;;;;;10.57;8.40;;;4.50;99.90;;;;;;6215752;23;20167;-92
2021/10/24 04:41:57;;;;;;;10.18;8.52;;;;;;;;;;6216490;23;20198;-92
2021/10/24 04:44:27;;;;;;;10.52;9.07;;;4.50;99.90;;;;;;6238454;23;20202;-91
2021/10/24 04:46:54;;;;;;;15.13;9.43;;;3.80;99.90;;;;;;6214090;23;20151;-92
2021/10/24 04:49:25;;;;;;;15.40;9.80;;;6.00;99.90;;;;;;6214657;23;20158;-92
2021/10/24 04:51:52;;;;;;;12.98;9.48;;;;;;;;;;6235577;23;20152;-90
2021/10/24 04:54:21;;;;;;;18.10;9.82;;;4.40;99.90;;;;;;6239917;23;20144;-92
2021/10/24 04:56:55;;;;;;;16.42;9.75;;;8.20;99.90;;;;;;6188737;23;20159;-92
2021/10/24 04:59:21;;;;;;;10.02;9.02;;;;;;;;;;6212518;23;20147;-92
2021/10/24 05:01:47;;;;;;;10.43;9.32;;;4.40;99.90;;;;;;6213308;23;20183;-92
2021/10/24 05:04:26;;;;;;;;;;;;;;;;;;;;;
2021/10/24 05:06:55;;;;;;;14.95;10.63;;;4.40;99.90;;;;;;6213728;23;20139;-90
2021/10/24 05:09:23;;;;;;;13.60;10.27;;;3.90;99.90;;;;;;6216326;23;20163;-92
2021/10/24 05:11:49;;;;;;;16.45;9.52;;;7.80;99.90;;;;;;6212614;23;20150;-92
2021/10/24 05:14:24;;;;;;;16.90;10.13;;;4.40;99.90;;;;;;6212928;23;20151;-91
2021/10/24 05:16:53;;;;;;;14.43;10.50;;;;;;;;;;6239365;23;20398;-91
2021/10/24 05:19:20;;;;;;;12.00;9.98;;;4.40;99.90;;;;;;6237619;23;20161;-91
2021/10/24 05:21:47;;;;;;;15.23;10.90;;;;;;;;;;6239816;23;20219;-92
2021/10/24 05:24:15;;;;;;;10.32;9.18;;;;;;;;;;6241087;23;20162;-91
2021/10/24 05:26:44;;;;;;;11.35;8.85;;;;;;;;;;6240570;23;20143;-91
2021/10/24 05:29:11;;;;;;;12.38;9.70;;;;;;;;;;6238174;23;20152;-90
2021/10/24 05:31:43;;;;;;;11.25;9.32;;;4.50;99.90;;;;;;6239790;23;20155;-92
2021/10/24 05:34:09;;;;;;;14.45;10.55;;;;;;;;;;6215704;23;20151;-92
2021/10/24 05:36:45;;;;;;;10.13;9.13;;;;;;;;;;6239877;23;20160;-92
2021/10/24 05:39:11;;;;;;;17.33;10.00;;;;;;;;;;6239614;23;20162;-92
2021/10/24 05:41:40;;;;;;;11.07;9.82;;;4.40;99.90;;;;;;6237379;23;20205;-91
2021/10/24 05:44:09;;;;;;;15.02;10.27;;;4.50;99.90;;;;;;6239009;23;20143;-92
2021/10/24 05:46:41;;;;;;;17.48;10.65;;;8.50;99.90;;;;;;6240326;23;20152;-91
2021/10/24 05:49:07;;;;;;;11.23;9.40;;;6.50;99.90;;;;;;6237411;23;20159;-93
2021/10/24 05:51:34;;;;;;;19.87;10.53;;;;;;;;;;6234952;23;20165;-90
2021/10/24 05:54:01;;;;;;;18.25;11.13;;;4.40;99.90;;;;;;6235448;23;20386;-90
2021/10/24 05:56:52;;;;;;;16.17;10.90;;;5.60;99.90;;;;;;6231661;23;20151;-91
2021/10/24 05:59:20;;;;;;;11.45;9.20;;;;;;;;;;6205459;23;20227;-91
2021/10/24 06:02:05;;;;;;;12.77;9.75;;;4.40;99.90;;;;;;6231225;23;20227;-90
2021/10/24 06:04:37;;;;;;;13.82;9.43;;;4.20;99.90;;;;;;6229971;23;20159;-90
2021/10/24 06:07:10;;;;;;;11.18;9.93;;;4.40;99.90;;;;;;6235759;23;20140;-92
2021/10/24 06:12:05;;;;;;;15.23;11.60;;;4.40;99.90;;;;;;6239653;23;20150;-92
2021/10/24 06:14:36;;;;;;;18.63;10.20;;;4.20;99.90;;;;;;6240606;23;20178;-91
2021/10/24 06:17:16;;;;;;;18.30;12.63;;;4.40;99.90;;;;;;6212190;23;20158;-91
2021/10/24 06:20:00;;;;;;;17.08;10.50;;;4.50;99.90;;;;;;6240552;23;20140;-93
2021/10/24 06:22:33;;;;;;;12.45;11.15;;;4.50;99.90;;;;;;6211128;23;20147;-91
2021/10/24 06:24:59;;;;;;;12.75;11.30;;;;;;;;;;6208581;23;20147;-92
2021/10/24 06:27:26;;;;;;;15.93;10.55;;;4.40;99.90;;;;;;6210183;23;20156;-92
2021/10/24 06:29:55;;;;;;;14.40;9.77;;;;;;;;;;6208419;23;20144;-92
2021/10/24 06:32:29;;;;;;;14.95;10.48;;;4.40;99.90;;;;;;6213563;23;20147;-91
2021/10/24 06:35:03;;;;;;;13.75;10.25;;;4.60;99.90;;;;;;6191897;23;20203;-91
2021/10/24 06:37:50;;;;;;;18.42;10.77;;;7.10;99.90;;;;;;6211159;23;20151;-92
2021/10/24 06:40:44;;;;;;;12.82;9.90;;;2.80;99.90;;;;;;6191045;23;20175;-92
2021/10/24 06:43:31;;;;;;;15.55;9.85;;;4.60;99.90;;;;;;6241793;23;20128;-91
2021/10/24 06:46:21;;;;;;;17.00;10.13;;;4.60;99.90;;;;;;6215785;23;20151;-90
2021/10/24 06:49:00;;;;;;;;;;;;;;;;;;;;;
2021/10/24 06:51:33;;;;;;;15.23;9.65;;;4.50;99.90;;;;;;6242090;23;20123;-91
2021/10/24 06:54:23;;;;;;;16.73;10.85;;;4.60;99.90;;;;;;6190754;23;20166;-92
2021/10/24 06:57:08;;;;;;;10.82;9.85;;;4.70;99.90;;;;;;6218649;23;20151;-92
2021/10/24 06:59:42;;;;;;;15.50;10.10;;;4.70;99.90;;;;;;6214094;23;20147;-92
2021/10/24 07:02:21;;;;;;;13.55;9.50;;;6.70;99.90;;;;;;6235401;23;20197;-89
2021/10/24 07:05:12;;;;;;;11.65;9.60;;;4.90;99.90;;;;;;6215480;23;20147;-91
2021/10/24 07:07:48;;;;;;;11.35;10.25;;;;;;;;;;6219801;23;20130;-92
2021/10/24 07:10:28;;;;;;;10.13;9.18;;;4.80;99.90;;;;;;6240693;23;20163;-91
2021/10/24 07:13:08;;;;;;;20.90;9.85;;;4.90;99.90;;;;;;6212054;23;20162;-89
2021/10/24 07:21:52;;;;;;;12.25;9.05;;;;;;;;;;6218836;23;20170;-93
2021/10/24 07:24:19;;;;;;;13.85;10.70;;;;;;;;;;6214387;23;20152;-90
2021/10/24 07:27:18;;;;;;;10.48;9.10;;;5.20;99.90;;;;;;6210625;23;20148;-91
2021/10/24 07:30:07;;;;;;;11.40;9.10;;;5.80;99.90;;;;;;6214673;23;20178;-93
2021/10/24 07:32:33;;;;;;;15.38;9.38;;;;;;;;;;6238622;23;20203;-89
2021/10/24 07:34:59;;;;;;;11.60;10.35;;;;;;;;;;6213403;23;20151;-90
2021/10/24 07:37:49;;;;;;;11.70;9.50;;;5.50;99.90;;;;;;6215228;23;20155;-90
2021/10/24 07:40:20;;;;;;;13.40;9.23;;;5.60;99.90;;;;;;6229530;23;20183;-92
2021/10/24 07:42:51;;;;;;;11.10;9.95;;;5.60;99.90;;;;;;6188675;23;20170;-92
2021/10/24 07:45:18;;;;;;;15.43;10.48;;;;;;;;;;6212666;23;20142;-92
2021/10/24 07:47:44;;;;;;;16.15;11.30;;;;;;;;;;6213080;23;20151;-89
2021/10/24 07:50:11;;;;;;;16.08;12.13;;;5.80;99.90;;;;;;6238119;23;20154;-92
2021/10/24 07:52:43;;;;;;;13.40;8.83;;;5.70;99.90;;;;;;6188091;23;20160;-92
2021/10/24 07:55:17;;;;;;;13.07;10.95;;;6.40;99.90;;;;;;6211971;23;20386;-90
2021/10/24 07:58:05;;;;;;;10.30;9.02;;;6.40;99.90;;;;;;6236633;23;20204;-92
2021/10/24 08:00:37;;;;;;;12.98;10.52;;;8.10;99.90;;;;;;6211661;23;20195;-91
2021/10/24 08:03:11;;;;;;;16.40;10.45;;;6.40;99.90;;;;;;6211710;23;20166;-91
2021/10/24 08:05:49;;;;;;;14.87;9.60;;;7.70;99.90;;;;;;6208208;23;20229;-92
2021/10/24 08:08:17;;;;;;;13.50;9.32;;;;;;;;;;6207245;23;20438;-91
2021/10/24 08:10:44;;;;;;;9.93;8.93;;;;;;;;;;6204825;23;20235;-91
2021/10/24 08:13:22;;;;;;;10.10;8.00;;;6.60;99.90;;;;;;6210572;23;20211;-92
2021/10/24 08:15:51;;;;;;;8.33;7.20;;;7.20;99.90;;;;;;6234774;23;20277;-91
2021/10/24 08:18:33;;;;;;;4.50;4.30;;;7.10;99.90;;;;;;6232933;23;20379;-89
2021/10/24 08:21:03;;;;;;;3.88;3.58;;;7.20;99.90;;;;;;6205000;23;20175;-92
2021/10/24 08:23:29;;;;;;;5.00;4.70;;;7.40;99.90;;;;;;6228814;23;20163;-92
2021/10/24 08:26:03;;;;;;;3.73;3.27;;;5.70;99.90;;;;;;6203668;23;20210;-91
2021/10/24 08:28:29;;;;;;;8.68;4.30;;;;;;;;;;6202419;23;20387;-91
2021/10/24 08:30:55;;;;;;;10.60;3.97;;;7.90;99.90;;;;;;6203789;23;20235;-92
2021/10/24 08:33:21;;;;;;;3.87;3.57;;;;;;;;;;6204165;23;20418;-91
2021/10/24 08:35:59;;;;;;;3.70;2.93;;;8.30;99.90;;;;;;6204374;23;20223;-92
2021/10/24 08:38:25;;;;;;;3.27;3.03;;;;;;;;;;6230015;23;20719;-91
2021/10/24 08:40:54;;;;;;;3.93;3.63;;;8.70;99.90;;;;;;6199770;23;20434;-90
2021/10/24 08:43:28;;;;;;;4.40;4.00;;;9.20;99.90;;;;;;6223736;23;20679;-91
2021/10/24 08:45:54;;;;;;;5.00;3.50;;;;;;;;;;6198612;23;20147;-90
2021/10/24 08:48:21;;;;;;;5.13;2.87;;;;;;;;;;6197099;23;20371;-85
2021/10/24 08:50:47;;;;;;;4.10;2.80;;;;;;;;;;6198412;23;20382;-88
2021/10/24 08:53:19;;;;;;;3.90;2.23;;;12.40;93.40;;;;;;6202402;23;20413;-90
2021/10/24 08:55:49;;;;;;;3.10;2.90;;;14.30;90.90;;;;;;6200331;23;20397;-90
2021/10/24 08:58:18;;;;;;;3.73;2.60;;;15.20;67.20;;;;;;6226358;23;20371;-90
2021/10/24 09:00:48;;;;;;;2.60;2.50;;;18.20;74.10;;;;;;6224522;23;20422;-91
2021/10/24 09:03:14;;;;;;;2.70;2.60;;;;;;;;;;6193738;23;20386;-92
2021/10/24 09:05:48;;;;;;;2.77;2.60;;;16.70;70.30;;;;;;6219874;23;20608;-90
2021/10/24 09:08:20;;;;;;;2.73;2.63;;;17.50;53.80;;;;;;6195723;23;20383;-91
2021/10/24 09:10:51;;;;;;;2.90;2.80;;;17.80;54.30;;;;;;6197931;23;20381;-89
2021/10/24 09:13:27;;;;;;;3.40;3.30;;;20.90;54.80;;;;;;6196696;23;20389;-90
2021/10/24 09:16:00;;;;;;;2.90;2.80;;;19.10;50.50;;;;;;6194745;23;20437;-91
2021/10/24 09:18:49;;;;;;;2.83;2.67;;;19.90;48.50;;;;;;6227643;23;20833;-91
2021/10/24 09:21:18;;;;;;;3.00;2.90;;;18.80;47.50;;;;;;6223796;23;20520;-91
2021/10/24 09:24:06;;;;;;;2.90;2.83;;;21.00;45.10;;;;;;6196800;23;20386;-89
2021/10/24 09:26:39;;;;;;;2.83;2.63;;;21.80;43.40;;;;;;6202184;23;20389;-92
2021/10/24 09:29:14;;;;;;;3.03;2.93;;;22.60;43.30;;;;;;6226532;23;20454;-92
2021/10/24 09:31:53;;;;;;;2.97;2.77;;;21.80;41.50;;;;;;6226075;23;20351;-92
2021/10/24 09:34:23;;;;;;;2.93;2.73;;;23.30;44.70;;;;;;6197716;23;20424;-92
2021/10/24 09:37:05;;;;;;;4.23;3.20;;;22.00;44.10;;;;;;6199701;23;20401;-91
2021/10/24 09:42:28;;;;;;;2.83;2.70;;;23.70;41.30;;;;;;6206236;23;20390;-92
2021/10/24 09:45:13;;;;;;;3.57;3.10;;;23.10;43.70;;;;;;6199836;23;20374;-92
2021/10/24 09:47:46;;;;;;;3.67;3.50;;;23.90;41.50;;;;;;6228794;23;20421;-92
2021/10/24 09:50:34;;;;;;;3.17;3.00;;;21.70;37.70;;;;;;6204877;23;20385;-91
2021/10/24 09:53:22;;;;;;;3.30;2.67;;;24.70;41.20;;;;;;6171707;23;20376;-91
2021/10/24 09:56:16;;;;;;;2.80;2.70;;;22.90;37.30;;;;;;6201877;23;20387;-92
2021/10/24 09:58:55;;;;;;;5.80;2.90;;;24.00;40.50;;;;;;6197587;23;20383;-90
2021/10/24 10:01:52;;;;;;;;;;;;;;;;;;;;;
2021/10/24 10:04:25;;;;;;;3.17;3.07;;;22.30;38.50;;;;;;6203683;23;20355;-91
2021/10/24 10:07:14;;;;;;;2.73;2.63;;;23.40;39.10;;;;;;6198389;23;20722;-92
2021/10/24 10:09:56;;;;;;;2.47;2.47;;;25.80;41.20;;;;;;6203821;23;20366;-91
2021/10/24 10:12:28;;;;;;;3.37;3.17;;;22.70;43.90;;;;;;6198212;23;20382;-88
2021/10/24 10:14:58;;;;;;;3.13;3.03;;;21.10;43.40;;;;;;6201064;23;20375;-89
2021/10/24 10:17:30;;;;;;;2.57;2.50;;;21.10;43.10;;;;;;6197768;23;20376;-90
2021/10/24 10:19:56;;;;;;;2.90;2.80;;;21.80;42.10;;;;;;6198199;23;20383;-91
2021/10/24 10:22:22;;;;;;;2.90;2.80;;;21.60;42.40;;;;;;6196822;23;20553;-92
2021/10/24 10:25:23;;;;;;;3.10;2.90;;;22.10;43.60;;;;;;6174956;23;20383;-86
2021/10/24 10:27:52;;;;;;;3.07;2.87;;;23.10;41.10;;;;;;6178153;23;20147;-89
2021/10/24 10:31:05;;;;;;;3.27;3.17;;;22.80;42.50;;;;;;6179078;23;20383;-93
2021/10/24 10:33:37;;;;;;;3.33;3.10;;;21.90;39.70;;;;;;6173056;23;20387;-88
2021/10/24 10:36:06;;;;;;;3.10;2.90;;;23.70;36.80;;;;;;6194830;23;20375;-91
2021/10/24 10:38:39;;;;;;;2.80;2.60;;;25.30;38.40;;;;;;6195329;23;20387;-92
2021/10/24 10:41:08;;;;;;;2.83;2.73;;;24.40;37.30;;;;;;6193631;23;20427;-92
2021/10/24 10:43:37;;;;;;;2.60;2.40;;;26.90;37.10;;;;;;6168990;23;20402;-92
2021/10/24 10:46:26;;;;;;;2.60;2.50;;;25.40;37.90;;;;;;6201108;23;20491;-90
2021/10/24 10:49:26;;;;;;;;;;;;;;;;;;;;;
2021/10/24 10:52:34;;;;;;;2.37;2.37;;;25.30;35.40;;;;;;6203050;23;20439;-92
2021/10/24 10:55:22;;;;;;;2.43;2.23;;;25.10;34.50;;;;;;6178934;23;20522;-92
2021/10/24 10:57:52;;;;;;;2.73;2.53;;;25.90;34.80;;;;;;6204987;23;20356;-91
2021/10/24 11:00:58;;;;;;;2.20;2.20;;;28.10;36.70;;;;;;6200370;23;20889;-88
2021/10/24 11:03:45;;;;;;;2.60;2.50;;;24.80;33.30;;;;;;6201896;23;20359;-92
2021/10/24 11:06:36;;;;;;;1.90;1.80;;;24.00;35.10;;;;;;6200831;23;20387;-91
2021/10/24 11:09:56;;;;;;;2.83;2.70;;;25.50;36.70;;;;;;6143398;23;20448;-93
2021/10/24 11:12:54;;;;;;;;;;;;;;;;;;;;;
2021/10/24 11:15:29;;;;;;;2.60;2.50;;;26.40;35.80;;;;;;6197465;23;20486;-92
2021/10/24 11:18:08;;;;;;;;;;;;;;;;;;;;;
2021/10/24 11:21:04;;;;;;;6.40;2.73;;;27.10;36.10;;;;;;6207251;23;20430;-92
2021/10/24 11:24:08;;;;;;;2.30;2.30;;;26.00;35.70;;;;;;6185718;23;20391;-91
2021/10/24 11:26:48;;;;;;;2.53;2.43;;;25.90;33.70;;;;;;6181689;23;20379;-92
2021/10/24 11:29:20;;;;;;;2.33;2.23;;;25.10;35.50;;;;;;6180950;23;20406;-90
2021/10/24 11:31:45;;;;;;;2.53;2.43;;;24.60;35.50;;;;;;6180085;23;20383;-91
2021/10/24 11:34:55;;;;;;;2.03;1.97;;;22.80;34.60;;;;;;6179735;23;20462;-91
2021/10/24 11:37:44;;;;;;;3.47;1.77;;;27.30;35.80;;;;;;6152953;23;20150;-90
2021/10/24 11:40:17;;;;;;;1.80;1.80;;;24.60;36.00;;;;;;6205352;23;20359;-89
2021/10/24 11:46:14;;;;;;;;;;;;;;;;;;;;;
2021/10/24 11:48:41;;;;;;;2.50;2.30;;;23.80;39.40;;;;;;6201826;23;20390;-88
2021/10/24 11:51:16;;;;;;;2.47;2.27;;;24.00;36.80;;;;;;6200893;23;20387;-91
2021/10/24 11:54:09;;;;;;;2.13;2.03;;;24.90;34.20;;;;;;6203263;23;20379;-91
2021/10/24 11:58:19;;;;;;;2.43;2.43;;;25.10;34.10;;;;;;6176124;23;20371;-90
2021/10/24 12:00:26;;;;;;;2.13;2.13;;;24.40;33.60;;;;;;6178494;23;20401;-88
2021/10/24 12:03:16;;;;;;;;;;;;;;;;;;;;;
2021/10/24 12:05:47;;;;;;;2.63;2.40;;;28.20;37.80;;;;;;6203646;23;20352;-88
2021/10/24 12:08:13;;;;;;;2.73;2.63;;;26.50;36.50;;;;;;6202436;23;20938;-90
2021/10/24 12:10:50;;;;;;;2.53;2.43;;;26.40;36.50;;;;;;6200515;23;20431;-92
2021/10/24 12:13:40;;;;;;;1.97;1.97;;;27.50;34.30;;;;;;6200944;23;20372;-90
2021/10/24 12:16:23;;;;;;;2.10;2.00;;;26.30;33.80;;;;;;6199913;23;20418;-89
2021/10/24 12:19:30;;;;;;;2.00;1.90;;;26.60;33.70;;;;;;6172363;23;20375;-91
2021/10/24 12:22:08;;;;;;;2.87;2.70;;;26.60;33.20;;;;;;6203849;23;20496;-90
2021/10/24 12:24:55;;;;;;;2.47;2.37;;;25.10;33.10;;;;;;6198281;23;20403;-89
2021/10/24 12:27:45;;;;;;;4.43;3.60;;;26.00;33.50;;;;;;6198137;23;20367;-89
2021/10/24 12:30:20;;;;;;;2.33;2.23;;;30.80;36.60;;;;;;6196963;23;20447;-89
2021/10/24 12:33:06;;;;;;;2.23;2.13;;;28.60;34.70;;;;;;6200697;23;20874;-88
2021/10/24 12:35:48;;;;;;;2.30;2.20;;;26.20;32.80;;;;;;6197425;23;20372;-90
2021/10/24 12:38:28;;;;;;;5.83;2.00;;;26.30;33.80;;;;;;6199555;23;20368;-89
2021/10/24 12:41:03;;;;;;;2.20;2.10;;;27.90;34.80;;;;;;6198684;23;20415;-90
2021/10/24 12:43:29;;;;;;;3.07;2.33;;;25.20;32.70;;;;;;6198660;23;20426;-89
2021/10/24 12:46:06;;;;;;;2.40;2.40;;;29.70;38.70;;;;;;6198465;23;20479;-90
2021/10/24 12:48:45;;;;;;;2.70;2.60;;;26.70;37.40;;;;;;6201427;23;20580;-90
2021/10/24 12:51:30;;;;;;;2.50;2.40;;;28.30;34.70;;;;;;6197997;23;20375;-89
2021/10/24 12:54:01;;;;;;;2.53;2.50;;;25.80;32.60;;;;;;6195740;23;20367;-90
2021/10/24 12:56:29;;;;;;;2.53;2.43;;;26.50;33.50;;;;;;6172964;23;20494;-91
2021/10/24 12:58:58;;;;;;;2.70;2.50;;;25.80;37.40;;;;;;6195066;23;20434;-91
2021/10/24 13:01:45;;;;;;;2.30;2.20;;;28.30;35.50;;;;;;6196105;23;20442;-88
2021/10/24 13:04:11;;;;;;;2.33;2.00;;;25.70;33.60;;;;;;6171252;23;20406;-89
2021/10/24 13:06:40;;;;;;;2.47;2.30;;;23.30;34.10;;;;;;6198914;23;20417;-89
2021/10/24 13:09:06;;;;;;;2.73;2.50;;;26.90;37.60;;;;;;6192679;23;20515;-89
2021/10/24 13:11:39;;;;;;;5.27;2.87;;;27.00;36.90;;;;;;6192727;23;20391;-87
2021/10/24 13:14:30;;;;;;;2.00;2.00;;;26.60;36.20;;;;;;6188212;23;20415;-91
2021/10/24 13:17:27;;;;;;;2.40;2.20;;;24.70;34.50;;;;;;6190266;23;20442;-88
2021/10/24 13:19:55;;;;;;;2.50;2.40;;;24.20;36.00;;;;;;6178010;23;20393;-89
2021/10/24 13:25:06;;;;;;;2.27;2.27;;;23.90;35.70;;;;;;6189301;23;20359;-89
2021/10/24 13:27:31;;;;;;;3.07;2.87;;;24.30;36.80;;;;;;6186506;23;20733;-90
2021/10/24 13:29:57;;;;;;;2.67;2.53;;;25.80;38.60;;;;;;6187795;23;20438;-90
2021/10/24 13:32:23;;;;;;;2.40;2.30;;;;;;;;;;6190840;23;20132;-89
2021/10/24 13:34:49;;;;;;;2.53;2.33;;;25.10;33.40;;;;;;6163309;23;20383;-90
2021/10/24 13:37:17;;;;;;;2.37;2.37;;;25.40;37.10;;;;;;6190582;23;20376;-88
2021/10/24 13:39:45;;;;;;;2.73;2.50;;;25.60;36.60;;;;;;6189698;23;20610;-88
2021/10/24 13:42:12;;;;;;;2.43;1.97;;;24.20;35.20;;;;;;6188792;23;20482;-90
2021/10/24 13:44:44;;;;;;;2.67;2.57;;;26.70;39.10;;;;;;6163846;23;20385;-89
2021/10/24 13:47:09;;;;;;;2.70;2.70;;;24.60;36.50;;;;;;6189959;23;20426;-90
2021/10/24 13:49:38;;;;;;;2.17;2.07;;;23.30;34.20;;;;;;6190521;23;20368;-91
2021/10/24 13:52:04;;;;;;;1.80;1.70;;;24.40;39.60;;;;;;6190855;23;20144;-88
2021/10/24 13:54:36;;;;;;;2.20;2.20;;;23.10;38.00;;;;;;6187644;23;20414;-88
2021/10/24 13:57:11;;;;;;;4.63;4.33;;;23.80;39.00;;;;;;6190114;23;20394;-94
2021/10/24 13:59:40;;;;;;;3.17;2.60;;;23.40;37.60;;;;;;6189559;23;20370;-91
2021/10/24 14:02:07;;;;;;;2.50;2.30;;;21.70;35.50;;;;;;6186940;23;20484;-90
2021/10/24 14:04:33;;;;;;;2.37;2.37;;;25.10;37.00;;;;;;6190262;23;20670;-89
2021/10/24 14:07:03;;;;;;;2.50;2.50;;;25.10;36.50;;;;;;6190750;23;20416;-92
2021/10/24 14:09:29;;;;;;;2.50;2.30;;;23.30;35.70;;;;;;6185727;23;20390;-89